createdAt,value
2022-12-11T00:00:55.459Z,15.18
2022-12-11T00:03:23.113Z,15.52
2022-12-11T00:05:50.623Z,16.52
2022-12-11T00:08:18.186Z,17.15
2022-12-11T00:10:49.663Z,17.33
2022-12-11T00:13:17.217Z,17.88
2022-12-11T00:15:44.654Z,17.33
2022-12-11T00:18:14.158Z,18.25
2022-12-11T00:20:42.016Z,18.75
2022-12-11T00:23:10.926Z,18.13
2022-12-11T00:25:45.666Z,18.13
2022-12-11T00:28:19.918Z,19.00
2022-12-11T00:30:47.977Z,16.92
2022-12-11T00:33:15.694Z,16.45
2022-12-11T00:35:46.837Z,16.55
2022-12-11T00:38:17.789Z,17.48
2022-12-11T00:40:45.731Z,16.30
2022-12-11T00:43:14.400Z,16.42
2022-12-11T00:45:44.523Z,15.90
2022-12-11T00:48:13.376Z,15.70
2022-12-11T00:50:41.417Z,14.85
2022-12-11T00:53:08.899Z,16.10
2022-12-11T00:55:38.274Z,14.57
2022-12-11T00:58:07.300Z,14.77
2022-12-11T01:00:35.615Z,15.60
2022-12-11T01:03:03.668Z,15.85
2022-12-11T01:05:31.729Z,15.30
2022-12-11T01:07:59.816Z,14.35
2022-12-11T01:10:27.454Z,14.27
2022-12-11T01:12:56.430Z,13.07
2022-12-11T01:15:29.919Z,13.45
2022-12-11T01:17:57.572Z,14.63
2022-12-11T01:20:27.360Z,12.25
2022-12-11T01:22:57.323Z,13.38
2022-12-11T01:25:25.829Z,13.98
2022-12-11T01:27:55.348Z,13.40
2022-12-11T01:30:25.081Z,13.20
2022-12-11T01:32:52.734Z,14.35
2022-12-11T01:35:20.837Z,15.15
2022-12-11T01:37:49.019Z,15.35
2022-12-11T01:40:19.406Z,14.13
2022-12-11T01:42:47.223Z,14.23
2022-12-11T01:45:33.319Z,14.65
2022-12-11T01:48:14.217Z,14.50
2022-12-11T01:50:47.010Z,15.77
2022-12-11T01:53:20.058Z,13.77
2022-12-11T01:55:49.587Z,15.20
2022-12-11T01:58:18.664Z,14.65
2022-12-11T02:00:46.623Z,14.57
2022-12-11T02:03:14.416Z,14.80
2022-12-11T02:05:43.425Z,13.60
2022-12-11T02:08:12.085Z,12.15
2022-12-11T02:10:42.230Z,11.52
2022-12-11T02:13:19.124Z,11.38
2022-12-11T02:16:18.954Z,11.60
2022-12-11T02:18:59.109Z,10.38
2022-12-11T02:21:33.642Z,11.35
2022-12-11T02:24:45.944Z,10.18
2022-12-11T02:27:29.213Z,10.38
2022-12-11T02:30:05.932Z,10.32
2022-12-11T02:32:46.063Z,9.80
2022-12-11T02:35:22.295Z,10.07
2022-12-11T02:37:55.145Z,10.55
2022-12-11T02:40:27.832Z,10.07
2022-12-11T02:42:58.182Z,10.30
2022-12-11T02:45:27.576Z,9.88
2022-12-11T02:47:58.867Z,11.30
2022-12-11T02:50:28.956Z,10.93
2022-12-11T02:52:58.645Z,11.25
2022-12-11T02:55:28.464Z,10.82
2022-12-11T02:58:04.725Z,10.95
2022-12-11T03:00:33.011Z,11.85
2022-12-11T13:14:57.292Z,10.65
2022-12-11T13:43:50.981Z,9.85
2022-12-11T13:46:29.332Z,8.65
2022-12-11T13:49:01.172Z,10.10
2022-12-11T13:51:32.018Z,9.02
2022-12-11T13:54:17.281Z,9.30
2022-12-11T13:56:57.236Z,9.35
2022-12-11T13:59:37.160Z,10.10
2022-12-11T14:02:18.366Z,10.43
2022-12-11T14:04:49.577Z,10.77
2022-12-11T14:07:25.141Z,10.77
2022-12-11T14:09:59.782Z,12.32
2022-12-11T14:12:29.509Z,12.40
2022-12-11T14:14:59.817Z,11.77
2022-12-11T14:17:30.906Z,12.77
2022-12-11T14:20:03.115Z,13.00
2022-12-11T14:22:30.853Z,13.80
2022-12-11T14:25:03.612Z,12.60
2022-12-11T14:27:31.448Z,13.60
2022-12-11T14:30:11.353Z,12.90
2022-12-11T14:32:44.797Z,13.23
2022-12-11T14:35:38.697Z,13.35
2022-12-11T14:38:15.664Z,13.20
2022-12-11T14:40:47.483Z,12.65
2022-12-11T14:43:23.473Z,14.32
2022-12-11T14:45:57.476Z,14.35
2022-12-11T14:48:42.710Z,13.52
2022-12-11T14:53:45.021Z,13.80
2022-12-11T14:56:25.747Z,14.32
2022-12-11T14:58:58.240Z,14.20
2022-12-11T15:01:29.841Z,13.05
2022-12-11T15:04:25.392Z,14.07
2022-12-11T15:06:53.159Z,13.98
2022-12-11T15:09:40.675Z,14.10
2022-12-11T15:12:13.839Z,13.18
2022-12-11T15:15:01.343Z,14.30
2022-12-11T15:17:33.035Z,14.60
2022-12-11T15:20:07.604Z,13.60
2022-12-11T15:22:36.131Z,14.63
2022-12-11T15:25:04.239Z,13.48
2022-12-11T15:27:39.738Z,14.32
2022-12-11T15:30:29.191Z,17.80
2022-12-11T15:33:05.712Z,14.20
2022-12-11T15:35:33.339Z,14.65
2022-12-11T15:38:01.076Z,15.13
2022-12-11T15:40:29.352Z,13.57
2022-12-11T15:42:57.937Z,13.98
2022-12-11T15:45:29.522Z,14.40
2022-12-11T15:48:00.178Z,12.80
2022-12-11T15:50:29.567Z,13.75
2022-12-11T15:52:57.413Z,14.07
2022-12-11T15:55:27.757Z,14.25
2022-12-11T15:57:59.499Z,13.48
2022-12-11T16:00:28.285Z,12.98
2022-12-11T16:02:57.134Z,13.35
2022-12-11T16:05:25.766Z,13.43
2022-12-11T16:07:54.701Z,12.73
2022-12-11T16:10:22.989Z,12.40
2022-12-11T16:12:51.238Z,13.43
2022-12-11T16:15:23.513Z,13.52
2022-12-11T16:18:03.354Z,13.32
2022-12-11T16:20:31.666Z,11.90
2022-12-11T16:23:00.497Z,13.45
2022-12-11T16:25:29.075Z,13.32
2022-12-11T16:27:58.202Z,12.25
2022-12-11T16:30:27.476Z,13.73
2022-12-11T16:32:55.985Z,12.85
2022-12-11T16:35:23.803Z,13.60
2022-12-11T16:37:53.339Z,13.18
2022-12-11T16:40:21.379Z,12.15
2022-12-11T16:42:52.188Z,12.80
2022-12-11T16:45:26.146Z,12.20
2022-12-11T16:47:55.133Z,12.50
2022-12-11T16:50:23.678Z,12.30
2022-12-11T16:52:51.189Z,12.65
2022-12-11T16:55:22.208Z,12.50
2022-12-11T16:57:49.753Z,11.38
2022-12-11T17:00:18.705Z,12.63
2022-12-11T17:02:46.297Z,13.55
2022-12-11T17:05:16.610Z,12.70
2022-12-11T17:07:44.529Z,11.98
2022-12-11T17:10:12.298Z,12.13
2022-12-11T17:12:40.219Z,12.75
2022-12-11T17:15:08.044Z,14.13
2022-12-11T17:17:35.600Z,20.40
2022-12-11T17:20:05.161Z,17.35
2022-12-11T17:22:33.381Z,22.38
2022-12-11T17:25:01.183Z,15.23
2022-12-11T17:27:29.895Z,17.45
2022-12-11T17:29:57.780Z,18.80
2022-12-11T17:32:25.976Z,18.23
2022-12-11T17:34:53.811Z,15.73
2022-12-11T17:37:21.689Z,15.02
2022-12-11T17:39:53.345Z,21.90
2022-12-11T17:42:21.511Z,14.48
2022-12-11T17:44:49.023Z,17.05
2022-12-11T17:47:17.018Z,14.23
2022-12-11T17:49:45.149Z,12.68
2022-12-11T17:52:12.905Z,11.95
2022-12-11T17:54:40.559Z,19.05
2022-12-11T17:57:09.823Z,14.27
2022-12-11T17:59:37.951Z,24.92
2022-12-11T18:02:05.599Z,22.48
2022-12-11T18:04:34.201Z,14.68
2022-12-11T18:07:02.193Z,19.60
2022-12-11T18:09:30.025Z,16.23
2022-12-11T18:11:57.735Z,21.17
2022-12-11T18:14:25.576Z,22.08
2022-12-11T18:16:53.332Z,16.42
2022-12-11T18:19:22.700Z,15.23
2022-12-11T18:21:50.484Z,14.75
2022-12-11T18:24:18.055Z,17.92
2022-12-11T18:26:46.964Z,16.92
2022-12-11T18:29:15.280Z,20.23
2022-12-11T18:31:43.670Z,24.50
2022-12-11T18:34:11.525Z,16.73
2022-12-11T18:36:40.839Z,18.73
2022-12-11T18:39:09.642Z,18.17
2022-12-11T18:41:37.403Z,18.42
2022-12-11T18:44:09.510Z,18.52
2022-12-11T18:46:39.605Z,29.77
2022-12-11T18:49:07.662Z,20.55
2022-12-11T18:51:35.990Z,18.42
2022-12-11T18:54:04.856Z,18.60
2022-12-11T18:56:32.650Z,22.17
2022-12-11T18:59:00.296Z,21.90
2022-12-11T19:01:29.934Z,18.80
2022-12-11T19:04:03.530Z,19.42
2022-12-11T19:06:35.468Z,24.73
2022-12-11T19:09:06.621Z,24.40
2022-12-11T19:11:35.655Z,25.80
2022-12-11T19:14:05.633Z,23.42
2022-12-11T19:16:36.621Z,23.42
2022-12-11T19:19:09.931Z,23.00
2022-12-11T19:21:38.708Z,20.63
2022-12-11T19:24:08.671Z,22.33
2022-12-11T19:26:36.663Z,22.27
2022-12-11T19:29:04.488Z,22.92
2022-12-11T19:31:33.911Z,23.55
2022-12-11T19:34:02.643Z,24.90
2022-12-11T19:36:33.599Z,23.35
2022-12-11T19:39:04.205Z,23.60
2022-12-11T19:41:33.917Z,22.95
2022-12-11T19:44:02.214Z,23.80
2022-12-11T19:46:30.071Z,22.40
2022-12-11T19:48:59.318Z,23.42
2022-12-11T19:51:38.298Z,22.15
2022-12-11T19:54:08.762Z,23.88
2022-12-11T19:56:36.406Z,25.25
2022-12-11T19:59:08.348Z,23.85
2022-12-11T20:01:37.650Z,25.25
2022-12-11T20:04:11.461Z,25.27
2022-12-11T20:06:42.906Z,25.75
2022-12-11T20:09:12.211Z,28.15
2022-12-11T20:11:43.648Z,24.67
2022-12-11T20:14:22.312Z,25.48
2022-12-11T20:17:11.061Z,23.88
2022-12-11T20:19:40.727Z,24.50
2022-12-11T20:22:09.198Z,24.42
2022-12-11T20:24:37.504Z,22.92
2022-12-11T20:27:05.185Z,23.13
2022-12-11T20:29:32.992Z,22.50
2022-12-11T20:32:00.921Z,22.50
2022-12-11T20:34:30.016Z,23.13
2022-12-11T20:36:57.870Z,23.83
2022-12-11T20:39:25.816Z,24.33
2022-12-11T20:41:53.716Z,25.92
2022-12-11T20:44:21.722Z,23.23
2022-12-11T20:46:50.731Z,23.10
2022-12-11T20:49:18.333Z,23.35
2022-12-11T20:51:46.121Z,23.50
2022-12-11T20:54:14.800Z,21.95
2022-12-11T20:56:42.648Z,23.27
2022-12-11T20:59:10.822Z,24.67
2022-12-11T21:01:40.256Z,24.83
2022-12-11T21:04:08.032Z,24.05
2022-12-11T21:06:38.709Z,26.38
2022-12-11T21:09:09.413Z,25.80
2022-12-11T21:11:37.158Z,27.52
2022-12-11T21:14:05.451Z,24.65
2022-12-11T21:16:36.612Z,27.00
2022-12-11T21:19:07.917Z,26.17
2022-12-11T21:21:39.922Z,26.35
2022-12-11T21:24:09.083Z,25.90
2022-12-11T21:26:36.531Z,29.10
2022-12-11T21:29:04.560Z,30.25
2022-12-11T21:31:32.189Z,28.17
2022-12-11T21:34:00.158Z,27.17
2022-12-11T21:36:27.754Z,27.33
2022-12-11T21:38:55.253Z,27.23
2022-12-11T21:41:24.141Z,27.40
2022-12-11T21:46:41.981Z,26.35
2022-12-11T21:49:10.077Z,25.58
2022-12-11T21:51:47.411Z,26.15
2022-12-11T21:54:18.453Z,24.83
2022-12-11T21:56:46.923Z,24.88
2022-12-11T21:59:14.765Z,24.80
2022-12-11T22:01:45.838Z,24.23
2022-12-11T22:04:14.517Z,26.17
2022-12-11T22:06:43.620Z,25.52
2022-12-11T22:09:12.551Z,26.05
2022-12-11T22:11:42.064Z,24.95
2022-12-11T22:14:15.331Z,24.20
2022-12-11T22:16:43.734Z,25.05
2022-12-11T22:19:11.669Z,26.23
2022-12-11T22:21:39.964Z,25.95
2022-12-11T22:24:07.579Z,26.23
2022-12-11T22:26:35.039Z,25.90
2022-12-11T22:29:02.946Z,27.33
2022-12-11T22:31:30.510Z,29.42
2022-12-11T22:33:57.967Z,29.85
2022-12-11T22:36:26.807Z,28.48
2022-12-11T22:38:54.551Z,30.45
2022-12-11T22:41:22.606Z,30.08
2022-12-11T22:43:51.294Z,27.85
2022-12-11T22:46:21.169Z,27.45
2022-12-11T22:48:48.860Z,25.88
2022-12-11T22:51:17.708Z,25.55
2022-12-11T22:53:45.297Z,24.30
2022-12-11T22:56:13.419Z,22.17
2022-12-11T22:58:41.394Z,20.85
2022-12-11T23:01:15.440Z,19.65
2022-12-11T23:03:43.116Z,19.48
2022-12-11T23:06:13.270Z,21.17
2022-12-11T23:08:43.061Z,21.25
2022-12-11T23:11:25.908Z,19.30
2022-12-11T23:13:54.671Z,19.85
2022-12-11T23:16:24.671Z,22.10
2022-12-11T23:18:53.293Z,21.08
2022-12-11T23:21:21.809Z,21.35
2022-12-11T23:23:49.610Z,22.52
2022-12-11T23:26:18.769Z,24.25
2022-12-11T23:28:47.406Z,21.92
2022-12-11T23:31:16.521Z,22.90
2022-12-11T23:33:44.682Z,23.85
2022-12-11T23:36:12.768Z,22.67
2022-12-11T23:38:40.892Z,22.08
2022-12-11T23:41:11.786Z,21.35
2022-12-11T23:43:41.291Z,21.17
2022-12-11T23:46:16.190Z,19.90
2022-12-11T23:48:44.762Z,18.38
2022-12-11T23:51:15.477Z,20.92
2022-12-11T23:53:43.383Z,18.35
2022-12-11T23:56:15.584Z,17.83
2022-12-11T23:58:45.363Z,17.10
